createdAt,value
2022-11-16T00:01:03.421Z,1.13
2022-11-16T00:03:12.696Z,1.17
2022-11-16T00:05:27.042Z,1.23
2022-11-16T00:07:36.772Z,1.37
2022-11-16T00:09:47.071Z,1.37
2022-11-16T00:11:56.655Z,1.40
2022-11-16T00:14:05.954Z,1.20
2022-11-16T00:16:16.193Z,1.40
2022-11-16T00:18:24.777Z,1.20
2022-11-16T00:20:33.290Z,1.40
2022-11-16T00:22:41.824Z,1.30
2022-11-16T00:24:51.639Z,1.20
2022-11-16T00:27:00.115Z,1.20
2022-11-16T00:29:08.580Z,1.20
2022-11-16T00:31:17.337Z,1.20
2022-11-16T00:33:25.829Z,1.40
2022-11-16T00:35:34.611Z,1.30
2022-11-16T00:37:43.132Z,1.50
2022-11-16T00:39:52.988Z,1.40
2022-11-16T00:42:01.485Z,1.57
2022-11-16T00:44:10.226Z,1.67
2022-11-16T00:46:18.934Z,1.40
2022-11-16T00:48:27.534Z,2.33
2022-11-16T00:50:35.962Z,1.33
2022-11-16T00:52:44.405Z,1.27
2022-11-16T00:54:54.236Z,1.37
2022-11-16T00:57:02.698Z,1.50
2022-11-16T00:59:11.132Z,1.37
2022-11-16T01:01:20.266Z,1.20
2022-11-16T01:03:28.772Z,1.40
2022-11-16T01:05:37.509Z,1.20
2022-11-16T01:07:46.002Z,1.30
2022-11-16T01:09:57.194Z,1.10
2022-11-16T01:12:10.731Z,1.40
2022-11-16T01:14:19.151Z,1.27
2022-11-16T01:16:27.550Z,1.30
2022-11-16T01:18:37.165Z,1.30
2022-11-16T01:20:45.585Z,1.30
2022-11-16T01:22:54.195Z,1.30
2022-11-16T01:25:04.030Z,1.50
2022-11-16T01:27:12.524Z,1.27
2022-11-16T01:29:21.043Z,1.20
2022-11-16T01:31:29.699Z,1.30
2022-11-16T01:33:38.273Z,1.20
2022-11-16T01:35:46.743Z,1.20
2022-11-16T01:37:55.181Z,1.20
2022-11-16T01:40:05.337Z,1.40
2022-11-16T01:42:19.156Z,1.30
2022-11-16T01:44:46.011Z,1.30
2022-11-16T01:46:54.462Z,1.60
2022-11-16T01:49:04.595Z,1.30
2022-11-16T01:51:13.197Z,1.20
2022-11-16T01:53:21.901Z,1.50
2022-11-16T01:55:33.458Z,1.30
2022-11-16T01:57:44.377Z,1.40
2022-11-16T01:59:54.839Z,1.23
2022-11-16T02:02:03.565Z,1.50
2022-11-16T02:04:12.339Z,1.47
2022-11-16T02:06:34.695Z,1.00
2022-11-16T02:09:08.284Z,1.40
2022-11-16T02:11:25.626Z,1.23
2022-11-16T02:13:37.856Z,1.00
2022-11-16T02:15:47.739Z,1.00
2022-11-16T02:18:04.034Z,1.07
2022-11-16T02:20:33.143Z,1.10
2022-11-16T02:22:50.252Z,0.90
2022-11-16T02:25:02.520Z,0.80
2022-11-16T02:27:35.278Z,0.53
2022-11-16T02:29:47.635Z,0.70
2022-11-16T02:32:00.428Z,0.70
2022-11-16T02:34:11.856Z,0.70
2022-11-16T02:36:22.638Z,0.80
2022-11-16T02:38:33.136Z,0.60
2022-11-16T02:40:44.778Z,0.60
2022-11-16T02:42:54.895Z,0.60
2022-11-16T02:45:05.222Z,0.60
2022-11-16T02:47:16.874Z,0.70
2022-11-16T02:49:25.998Z,0.60
2022-11-16T02:51:34.975Z,0.60
2022-11-16T02:53:52.373Z,0.60
2022-11-16T02:56:01.367Z,0.50
2022-11-16T02:58:11.790Z,0.70
2022-11-16T03:00:23.353Z,0.63
2022-11-16T03:02:35.847Z,0.50
2022-11-16T03:04:46.325Z,0.60
2022-11-16T03:06:55.807Z,0.57
2022-11-16T03:09:06.374Z,0.50
2022-11-16T03:11:32.699Z,0.60
2022-11-16T03:13:42.032Z,0.60
2022-11-16T03:15:52.748Z,0.40
2022-11-16T03:18:02.342Z,0.50
2022-11-16T03:20:13.892Z,0.50
2022-11-16T03:22:24.505Z,0.50
2022-11-16T03:24:33.294Z,0.40
2022-11-16T03:26:45.458Z,0.60
2022-11-16T03:28:57.352Z,0.90
2022-11-16T03:31:08.751Z,0.60
2022-11-16T03:33:20.022Z,0.40
2022-11-16T03:35:30.061Z,0.53
2022-11-16T03:37:38.972Z,0.57
2022-11-16T03:39:47.927Z,0.60
2022-11-16T03:41:56.685Z,0.60
2022-11-16T03:44:06.448Z,0.40
2022-11-16T03:46:17.204Z,0.47
2022-11-16T03:48:26.031Z,0.80
2022-11-16T03:50:34.461Z,0.40
2022-11-16T03:52:43.132Z,0.50
2022-11-16T03:54:51.570Z,0.53
2022-11-16T03:56:59.978Z,0.50
2022-11-16T03:59:08.401Z,0.50
2022-11-16T04:01:18.252Z,0.40
2022-11-16T04:03:26.755Z,0.53
2022-11-16T04:05:52.653Z,0.50
2022-11-16T04:08:18.553Z,0.60
2022-11-16T04:10:40.836Z,0.50
2022-11-16T04:13:06.742Z,0.47
2022-11-16T04:15:32.636Z,0.70
2022-11-16T04:18:00.133Z,0.70
2022-11-16T04:20:26.575Z,0.50
2022-11-16T04:22:55.127Z,0.57
2022-11-16T04:25:07.085Z,0.60
2022-11-16T04:27:33.860Z,0.70
2022-11-16T04:29:42.755Z,0.67
2022-11-16T04:32:08.935Z,0.50
2022-11-16T04:34:36.591Z,0.60
2022-11-16T04:37:02.858Z,0.60
2022-11-16T04:39:11.250Z,0.50
2022-11-16T04:41:37.059Z,0.70
2022-11-16T04:43:45.473Z,0.67
2022-11-16T04:46:11.384Z,0.70
2022-11-16T04:48:20.596Z,0.53
2022-11-16T04:50:30.523Z,0.60
2022-11-16T04:52:39.001Z,0.80
2022-11-16T04:54:47.450Z,0.70
2022-11-16T04:56:56.032Z,0.60
2022-11-16T04:59:04.667Z,0.57
2022-11-16T05:01:13.180Z,0.60
2022-11-16T05:03:21.753Z,0.67
2022-11-16T05:05:31.564Z,0.90
2022-11-16T05:07:40.206Z,0.90
2022-11-16T05:09:49.712Z,1.00
2022-11-16T05:11:58.302Z,0.70
2022-11-16T05:14:09.570Z,0.90
2022-11-16T05:16:18.186Z,0.70
2022-11-16T05:18:26.619Z,0.90
2022-11-16T05:20:54.193Z,0.70
2022-11-16T05:23:02.598Z,0.83
2022-11-16T05:25:11.158Z,0.80
2022-11-16T05:27:20.288Z,0.90
2022-11-16T05:29:28.717Z,0.90
2022-11-16T05:31:40.475Z,0.60
2022-11-16T05:33:49.158Z,0.80
2022-11-16T05:35:58.926Z,0.83
2022-11-16T05:38:07.366Z,0.63
2022-11-16T05:40:16.036Z,0.67
2022-11-16T05:42:24.828Z,0.83
2022-11-16T05:44:33.412Z,0.60
2022-11-16T05:46:42.229Z,0.70
2022-11-16T05:48:50.852Z,0.80
2022-11-16T05:51:01.902Z,0.60
2022-11-16T05:53:10.381Z,0.70
2022-11-16T05:55:18.995Z,0.57
2022-11-16T05:57:27.511Z,0.80
2022-11-16T05:59:36.101Z,0.63
2022-11-16T06:01:45.310Z,0.70
2022-11-16T06:03:53.871Z,0.70
2022-11-16T06:06:03.983Z,0.70
2022-11-16T06:08:12.461Z,0.60
2022-11-16T06:10:20.975Z,0.60
2022-11-16T06:12:29.367Z,0.63
2022-11-16T06:14:37.808Z,0.80
2022-11-16T06:16:46.372Z,0.70
2022-11-16T06:18:54.990Z,0.60
2022-11-16T06:21:04.820Z,0.60
2022-11-16T06:23:13.219Z,0.70
2022-11-16T06:25:21.671Z,0.53
2022-11-16T06:27:30.199Z,0.67
2022-11-16T06:29:38.663Z,0.70
2022-11-16T06:31:47.064Z,0.57
2022-11-16T06:33:55.525Z,0.60
2022-11-16T06:36:05.474Z,0.73
2022-11-16T06:38:18.590Z,0.60
2022-11-16T06:40:27.446Z,0.70
2022-11-16T06:42:36.060Z,0.70
2022-11-16T06:44:44.516Z,0.63
2022-11-16T06:46:52.993Z,0.53
2022-11-16T06:49:01.470Z,1.10
2022-11-16T06:51:11.314Z,0.90
2022-11-16T06:53:21.620Z,1.20
2022-11-16T06:55:33.835Z,0.70
2022-11-16T06:57:42.369Z,0.70
2022-11-16T06:59:50.882Z,0.90
2022-11-16T07:01:59.746Z,0.80
2022-11-16T07:04:11.926Z,1.30
2022-11-16T07:06:21.887Z,0.90
2022-11-16T07:08:30.634Z,0.80
2022-11-16T07:10:39.581Z,0.70
2022-11-16T07:12:48.059Z,0.70
2022-11-16T07:14:56.500Z,0.67
2022-11-16T07:17:09.259Z,0.60
2022-11-16T07:19:18.314Z,0.60
2022-11-16T07:21:28.125Z,0.70
2022-11-16T07:23:36.750Z,0.60
2022-11-16T07:25:47.632Z,0.70
2022-11-16T07:27:56.120Z,0.70
2022-11-16T07:30:04.714Z,1.10
2022-11-16T07:32:13.595Z,1.00
2022-11-16T07:34:22.060Z,0.70
2022-11-16T07:36:32.543Z,0.60
2022-11-16T07:38:40.981Z,1.00
2022-11-16T07:40:49.418Z,0.83
2022-11-16T07:42:59.586Z,0.60
2022-11-16T07:45:09.272Z,0.70
2022-11-16T07:47:17.716Z,0.70
2022-11-16T07:49:26.158Z,0.57
2022-11-16T07:51:36.005Z,0.70
2022-11-16T07:53:44.893Z,0.60
2022-11-16T07:55:54.805Z,0.70
2022-11-16T07:58:03.478Z,0.60
2022-11-16T08:00:12.216Z,0.70
2022-11-16T08:02:20.871Z,0.70
2022-11-16T08:04:29.313Z,0.60
2022-11-16T08:06:39.306Z,0.87
2022-11-16T08:08:47.833Z,0.77
2022-11-16T08:11:00.830Z,0.70
2022-11-16T08:13:09.456Z,0.80
2022-11-16T08:15:17.946Z,1.10
2022-11-16T08:17:26.437Z,0.67
2022-11-16T08:19:36.583Z,0.70
2022-11-16T08:21:46.817Z,0.77
2022-11-16T08:23:58.733Z,0.97
2022-11-16T08:26:09.375Z,0.90
2022-11-16T08:28:17.781Z,0.60
2022-11-16T08:30:26.251Z,0.80
2022-11-16T08:32:34.878Z,0.80
2022-11-16T08:34:43.355Z,0.70
2022-11-16T08:36:53.225Z,0.70
2022-11-16T08:39:01.662Z,1.43
2022-11-16T08:41:10.421Z,0.90
2022-11-16T08:43:18.928Z,1.30
2022-11-16T08:45:27.528Z,0.90
2022-11-16T08:47:36.027Z,1.40
2022-11-16T08:49:49.341Z,0.90
2022-11-16T08:52:00.106Z,0.73
2022-11-16T08:54:09.477Z,1.00
2022-11-16T08:56:19.042Z,0.80
2022-11-16T08:58:27.703Z,0.87
2022-11-16T09:00:36.958Z,1.00
2022-11-16T09:02:45.360Z,1.00
2022-11-16T09:04:53.866Z,1.07
2022-11-16T09:07:04.750Z,0.80
2022-11-16T09:09:13.584Z,1.00
2022-11-16T09:11:22.648Z,1.10
2022-11-16T09:13:31.219Z,1.00
2022-11-16T09:15:39.885Z,0.87
2022-11-16T09:17:48.731Z,1.07
2022-11-16T09:19:57.144Z,1.00
2022-11-16T09:22:07.148Z,0.97
2022-11-16T09:24:15.947Z,0.87
2022-11-16T09:26:24.870Z,0.90
2022-11-16T09:28:33.775Z,1.20
2022-11-16T09:30:42.659Z,0.90
2022-11-16T09:32:51.832Z,0.80
2022-11-16T09:35:00.383Z,0.90
2022-11-16T09:37:10.249Z,1.23
2022-11-16T09:39:30.770Z,1.10
2022-11-16T09:41:44.878Z,1.30
2022-11-16T09:43:57.934Z,1.10
2022-11-16T09:46:13.027Z,1.10
2022-11-16T09:48:22.836Z,1.13
2022-11-16T09:50:37.879Z,0.93
2022-11-16T09:52:50.070Z,1.20
2022-11-16T09:55:01.428Z,1.10
2022-11-16T09:57:12.749Z,1.23
2022-11-16T09:59:24.054Z,1.00
2022-11-16T10:01:35.259Z,1.20
2022-11-16T10:03:45.154Z,1.30
2022-11-16T10:05:58.038Z,1.37
2022-11-16T10:08:11.911Z,1.33
2022-11-16T10:10:24.089Z,1.10
2022-11-16T10:12:37.294Z,1.40
2022-11-16T10:15:33.371Z,0.97
2022-11-16T10:17:49.899Z,1.30
2022-11-16T10:19:59.078Z,1.10
2022-11-16T10:22:11.919Z,1.10
2022-11-16T10:24:32.362Z,1.00
2022-11-16T10:26:43.527Z,1.07
2022-11-16T10:28:58.648Z,1.10
2022-11-16T10:31:11.485Z,1.00
2022-11-16T10:33:22.227Z,1.00
2022-11-16T10:35:32.856Z,1.27
2022-11-16T10:37:43.306Z,1.07
2022-11-16T10:39:54.295Z,1.30
2022-11-16T10:42:07.600Z,1.00
2022-11-16T10:44:19.679Z,1.07
2022-11-16T10:46:31.061Z,1.37
2022-11-16T10:48:42.059Z,0.90
2022-11-16T10:50:51.799Z,1.27
2022-11-16T10:53:00.365Z,1.10
2022-11-16T10:55:16.115Z,1.10
2022-11-16T10:57:26.594Z,0.80
2022-11-16T10:59:43.518Z,1.27
2022-11-16T11:01:53.283Z,1.27
2022-11-16T11:04:18.481Z,1.03
2022-11-16T11:06:28.032Z,1.30
2022-11-16T11:08:36.503Z,1.53
2022-11-16T11:10:48.458Z,1.47
2022-11-16T11:13:03.431Z,0.90
2022-11-16T11:15:26.187Z,1.13
2022-11-16T11:17:35.662Z,1.30
2022-11-16T11:19:44.069Z,1.10
2022-11-16T11:21:57.158Z,1.40
2022-11-16T11:24:37.455Z,1.40
2022-11-16T11:26:38.262Z,1.50
2022-11-16T11:28:49.779Z,1.10
2022-11-16T11:31:00.610Z,1.30
2022-11-16T11:33:12.010Z,1.43
2022-11-16T11:35:27.008Z,1.57
2022-11-16T11:37:36.758Z,1.20
2022-11-16T11:39:45.260Z,1.10
2022-11-16T11:42:03.674Z,1.30
2022-11-16T11:44:17.760Z,1.00
2022-11-16T11:46:56.187Z,1.10
2022-11-16T11:49:01.597Z,0.83
2022-11-16T11:51:15.851Z,0.90
2022-11-16T11:53:31.234Z,0.90
2022-11-16T11:55:40.919Z,0.90
2022-11-16T11:57:53.064Z,1.00
2022-11-16T12:00:02.846Z,0.87
2022-11-16T12:02:21.492Z,0.80
2022-11-16T12:04:47.388Z,0.80
2022-11-16T12:07:00.787Z,0.80
2022-11-16T12:09:18.061Z,0.90
2022-11-16T12:11:31.263Z,0.97
2022-11-16T12:13:52.299Z,1.83
2022-11-16T12:16:05.109Z,0.80
2022-11-16T12:18:22.516Z,0.90
2022-11-16T12:20:34.932Z,0.90
2022-11-16T12:22:55.775Z,0.90
2022-11-16T12:25:12.133Z,1.10
2022-11-16T12:27:27.222Z,1.20
2022-11-16T12:29:42.065Z,1.20
2022-11-16T12:31:56.076Z,1.43
2022-11-16T12:34:10.250Z,1.20
2022-11-16T12:36:24.257Z,1.00
2022-11-16T12:38:43.844Z,0.73
2022-11-16T12:41:00.116Z,0.97
2022-11-16T12:43:12.843Z,0.90
2022-11-16T12:45:32.550Z,0.90
2022-11-16T12:47:44.929Z,0.93
2022-11-16T12:50:02.005Z,1.00
2022-11-16T12:52:17.263Z,1.30
2022-11-16T12:54:34.571Z,1.20
2022-11-16T12:56:49.278Z,0.70
2022-11-16T12:59:06.362Z,0.80
2022-11-16T13:01:20.692Z,1.63
2022-11-16T13:03:32.374Z,1.80
2022-11-16T13:05:45.778Z,1.00
2022-11-16T13:07:56.272Z,1.33
2022-11-16T13:10:07.289Z,1.23
2022-11-16T13:12:17.418Z,0.93
2022-11-16T13:14:28.344Z,1.40
2022-11-16T13:16:38.199Z,0.70
2022-11-16T13:18:46.771Z,0.60
2022-11-16T13:20:58.542Z,0.63
2022-11-16T13:23:09.049Z,0.53
2022-11-16T13:25:20.567Z,0.70
2022-11-16T13:27:36.742Z,0.60
2022-11-16T13:29:47.914Z,0.50
2022-11-16T13:32:01.343Z,0.70
2022-11-16T13:34:14.982Z,0.80
2022-11-16T13:36:43.528Z,0.70
2022-11-16T13:38:53.423Z,0.77
2022-11-16T13:41:16.706Z,0.50
2022-11-16T13:43:25.223Z,0.80
2022-11-16T13:45:35.905Z,0.60
2022-11-16T13:47:50.331Z,0.70
2022-11-16T13:49:59.669Z,0.70
2022-11-16T13:52:31.729Z,0.70
2022-11-16T13:54:45.343Z,0.70
2022-11-16T13:56:54.837Z,0.90
2022-11-16T13:59:03.473Z,0.70
2022-11-16T14:01:15.460Z,0.67
2022-11-16T14:03:30.098Z,0.83
2022-11-16T14:05:40.839Z,0.70
2022-11-16T14:07:50.641Z,0.90
2022-11-16T14:09:59.426Z,0.83
2022-11-16T14:12:22.698Z,0.83
2022-11-16T14:14:45.934Z,0.57
2022-11-16T14:16:54.444Z,0.80
2022-11-16T14:19:04.820Z,1.23
2022-11-16T14:21:17.258Z,6.23
2022-11-16T14:23:30.745Z,2.37
2022-11-16T14:25:41.522Z,1.00
2022-11-16T14:27:52.962Z,1.07
2022-11-16T14:30:05.061Z,1.07
2022-11-16T14:32:20.914Z,1.20
2022-11-16T14:34:32.889Z,1.10
2022-11-16T14:36:43.137Z,1.10
2022-11-16T14:38:51.806Z,1.03
2022-11-16T14:41:00.799Z,1.23
2022-11-16T14:43:16.476Z,1.50
2022-11-16T14:45:26.596Z,1.40
2022-11-16T14:47:37.992Z,1.00
2022-11-16T14:49:48.717Z,1.30
2022-11-16T14:51:58.831Z,1.00
2022-11-16T14:54:15.072Z,1.87
2022-11-16T14:56:23.725Z,0.70
2022-11-16T14:58:32.200Z,0.87
2022-11-16T15:00:40.652Z,0.70
2022-11-16T15:02:51.869Z,0.60
2022-11-16T15:05:03.254Z,0.70
2022-11-16T15:07:14.543Z,1.00
2022-11-16T15:09:24.617Z,0.90
2022-11-16T15:11:51.597Z,0.70
2022-11-16T15:14:00.024Z,0.90
2022-11-16T15:16:12.390Z,0.80
2022-11-16T15:18:22.092Z,0.83
2022-11-16T15:20:33.507Z,0.93
2022-11-16T15:22:43.204Z,0.80
2022-11-16T15:24:58.060Z,1.10
2022-11-16T15:27:25.278Z,0.83
2022-11-16T15:29:33.827Z,0.83
2022-11-16T15:31:43.592Z,1.10
2022-11-16T15:33:52.070Z,0.90
2022-11-16T15:36:01.932Z,1.07
2022-11-16T15:38:15.808Z,0.87
2022-11-16T15:40:24.326Z,0.90
2022-11-16T15:42:32.798Z,0.70
2022-11-16T15:44:41.460Z,0.80
2022-11-16T15:46:51.713Z,0.80
2022-11-16T15:49:00.637Z,0.90
2022-11-16T15:51:17.734Z,1.10
2022-11-16T15:53:36.699Z,0.87
2022-11-16T15:55:51.469Z,0.83
2022-11-16T15:58:01.753Z,1.10
2022-11-16T16:00:23.658Z,1.30
2022-11-16T16:02:32.965Z,1.17
2022-11-16T16:04:43.499Z,1.17
2022-11-16T16:06:54.380Z,1.20
2022-11-16T16:09:06.259Z,1.40
2022-11-16T16:11:27.857Z,1.30
2022-11-16T16:13:37.574Z,1.40
2022-11-16T16:15:46.609Z,1.30
2022-11-16T16:17:55.788Z,1.33
2022-11-16T16:20:05.190Z,1.33
2022-11-16T16:22:16.614Z,1.50
2022-11-16T16:24:38.539Z,1.40
2022-11-16T16:26:46.987Z,1.40
2022-11-16T16:28:55.731Z,1.30
2022-11-16T16:31:04.265Z,1.40
2022-11-16T16:33:16.144Z,1.20
2022-11-16T16:35:25.814Z,1.30
2022-11-16T16:37:37.196Z,1.60
2022-11-16T16:39:46.274Z,1.40
2022-11-16T16:41:56.007Z,1.50
2022-11-16T16:44:06.601Z,1.10
2022-11-16T16:46:15.931Z,1.40
2022-11-16T16:48:24.554Z,1.50
2022-11-16T16:50:33.603Z,1.30
2022-11-16T16:52:43.893Z,1.50
2022-11-16T16:54:52.316Z,1.53
2022-11-16T16:57:01.697Z,1.77
2022-11-16T16:59:10.378Z,1.80
2022-11-16T17:01:19.099Z,2.10
2022-11-16T17:03:27.659Z,1.90
2022-11-16T17:05:36.300Z,1.40
2022-11-16T17:07:46.753Z,1.73
2022-11-16T17:09:55.494Z,1.70
2022-11-16T17:12:04.632Z,1.77
2022-11-16T17:14:13.703Z,1.70
2022-11-16T17:16:23.796Z,1.87
2022-11-16T17:18:32.851Z,2.00
2022-11-16T17:20:45.371Z,2.00
2022-11-16T17:22:58.729Z,1.60
2022-11-16T17:25:09.104Z,1.80
2022-11-16T17:27:20.765Z,1.70
2022-11-16T17:29:29.927Z,2.00
2022-11-16T17:31:43.966Z,2.20
2022-11-16T17:33:52.715Z,2.20
2022-11-16T17:36:06.568Z,2.30
2022-11-16T17:38:17.501Z,2.13
2022-11-16T17:40:26.638Z,2.20
2022-11-16T17:42:37.551Z,1.90
2022-11-16T17:44:46.930Z,1.83
2022-11-16T17:46:56.020Z,1.43
2022-11-16T17:49:05.552Z,1.80
2022-11-16T17:51:17.248Z,1.60
2022-11-16T17:53:32.524Z,1.80
2022-11-16T17:55:41.967Z,4.70
2022-11-16T17:57:52.091Z,1.53
2022-11-16T18:00:01.288Z,1.60
2022-11-16T18:02:12.451Z,1.57
2022-11-16T18:04:21.476Z,3.10
2022-11-16T18:06:30.586Z,3.90
2022-11-16T18:08:41.406Z,3.30
2022-11-16T18:10:49.920Z,3.00
2022-11-16T18:12:58.862Z,4.83
2022-11-16T18:15:27.479Z,4.50
2022-11-16T18:17:37.319Z,2.43
2022-11-16T18:19:46.452Z,1.57
2022-11-16T18:21:55.430Z,1.93
2022-11-16T18:24:06.062Z,2.20
2022-11-16T18:26:18.305Z,5.60
2022-11-16T18:28:27.545Z,2.27
2022-11-16T18:30:36.606Z,1.90
2022-11-16T18:32:45.582Z,2.00
2022-11-16T18:34:54.226Z,1.77
2022-11-16T18:37:03.288Z,1.90
2022-11-16T18:39:13.677Z,2.03
2022-11-16T18:41:23.240Z,2.20
2022-11-16T18:43:32.048Z,2.10
2022-11-16T18:45:41.471Z,1.93
2022-11-16T18:47:50.781Z,2.90
2022-11-16T18:49:59.702Z,1.60
2022-11-16T18:52:08.135Z,1.57
2022-11-16T18:54:18.238Z,1.80
2022-11-16T18:56:27.279Z,1.90
2022-11-16T18:58:49.966Z,1.73
2022-11-16T19:01:03.630Z,1.70
2022-11-16T19:03:12.181Z,1.53
2022-11-16T19:05:20.640Z,1.63
2022-11-16T19:07:29.307Z,1.80
2022-11-16T19:09:39.219Z,1.70
2022-11-16T19:11:47.901Z,1.70
2022-11-16T19:13:57.108Z,1.57
2022-11-16T19:16:05.825Z,1.73
2022-11-16T19:18:21.065Z,2.20
2022-11-16T19:20:30.392Z,1.70
2022-11-16T19:22:38.941Z,1.93
2022-11-16T19:24:48.747Z,2.30
2022-11-16T19:26:57.185Z,1.90
2022-11-16T19:29:05.858Z,1.90
2022-11-16T19:31:15.313Z,1.87
2022-11-16T19:33:23.823Z,1.97
2022-11-16T19:35:32.277Z,1.97
2022-11-16T19:37:40.757Z,2.70
2022-11-16T19:39:50.538Z,1.70
2022-11-16T19:41:59.120Z,1.40
2022-11-16T19:44:07.677Z,1.40
2022-11-16T19:46:17.800Z,1.50
2022-11-16T19:48:26.257Z,1.90
2022-11-16T19:50:36.692Z,1.70
2022-11-16T19:52:45.474Z,1.50
2022-11-16T19:54:56.085Z,1.57
2022-11-16T19:57:05.189Z,1.07
2022-11-16T19:59:13.672Z,1.27
2022-11-16T20:01:23.154Z,1.20
2022-11-16T20:03:32.063Z,1.27
2022-11-16T20:05:40.675Z,1.10
2022-11-16T20:07:50.518Z,1.30
2022-11-16T20:10:00.598Z,1.53
2022-11-16T20:12:09.147Z,1.80
2022-11-16T20:14:17.945Z,1.70
2022-11-16T20:16:27.448Z,1.40
2022-11-16T20:18:36.069Z,1.50
2022-11-16T20:20:44.778Z,1.73
2022-11-16T20:22:53.742Z,1.60
2022-11-16T20:25:03.890Z,1.50
2022-11-16T20:27:12.342Z,3.23
2022-11-16T20:29:21.291Z,1.40
2022-11-16T20:31:30.551Z,1.00
2022-11-16T20:33:39.144Z,2.53
2022-11-16T20:35:47.734Z,1.50
2022-11-16T20:37:56.576Z,1.57
2022-11-16T20:40:07.043Z,1.20
2022-11-16T20:42:15.478Z,1.60
2022-11-16T20:44:24.141Z,1.00
2022-11-16T20:46:33.893Z,1.40
2022-11-16T20:48:43.528Z,1.47
2022-11-16T20:50:55.514Z,2.00
2022-11-16T20:53:04.170Z,1.43
2022-11-16T20:55:13.977Z,1.77
2022-11-16T20:57:23.036Z,1.13
2022-11-16T20:59:31.459Z,1.67
2022-11-16T21:01:41.694Z,1.77
2022-11-16T21:03:50.389Z,2.03
2022-11-16T21:05:58.864Z,2.10
2022-11-16T21:08:07.810Z,1.97
2022-11-16T21:10:21.131Z,2.17
2022-11-16T21:12:47.307Z,1.83
2022-11-16T21:14:55.924Z,2.00
2022-11-16T21:17:04.435Z,1.43
2022-11-16T21:19:12.976Z,1.30
2022-11-16T21:21:21.536Z,1.60
2022-11-16T21:23:30.662Z,1.40
2022-11-16T21:25:42.983Z,1.40
2022-11-16T21:27:51.463Z,1.23
2022-11-16T21:29:59.886Z,1.30
2022-11-16T21:32:08.338Z,1.43
2022-11-16T21:34:17.402Z,1.30
2022-11-16T21:36:26.964Z,1.23
2022-11-16T21:38:35.906Z,0.90
2022-11-16T21:40:45.767Z,1.00
2022-11-16T21:42:54.244Z,1.10
2022-11-16T21:45:02.685Z,1.00
2022-11-16T21:47:11.245Z,0.90
2022-11-16T21:49:19.786Z,0.70
2022-11-16T21:51:29.096Z,0.70
2022-11-16T21:53:38.283Z,0.60
2022-11-16T21:55:51.634Z,0.70
2022-11-16T21:58:00.385Z,0.80
2022-11-16T22:00:09.551Z,0.70
2022-11-16T22:02:18.287Z,0.70
2022-11-16T22:04:44.207Z,0.60
2022-11-16T22:07:10.219Z,0.40
2022-11-16T22:09:18.669Z,0.60
2022-11-16T22:11:28.563Z,0.90
2022-11-16T22:13:37.591Z,0.50
2022-11-16T22:15:46.345Z,0.63
2022-11-16T22:17:54.800Z,0.50
2022-11-16T22:20:03.388Z,0.63
2022-11-16T22:22:12.097Z,0.60
2022-11-16T22:24:20.838Z,0.70
2022-11-16T22:26:30.746Z,0.57
2022-11-16T22:28:39.473Z,0.60
2022-11-16T22:30:51.707Z,0.67
2022-11-16T22:33:00.799Z,0.60
2022-11-16T22:35:09.683Z,0.70
2022-11-16T22:37:18.130Z,0.50
2022-11-16T22:39:26.665Z,0.50
2022-11-16T22:41:36.487Z,0.40
2022-11-16T22:43:45.513Z,0.40
2022-11-16T22:45:54.033Z,0.50
2022-11-16T22:48:02.605Z,0.40
2022-11-16T22:50:11.562Z,0.50
2022-11-16T22:52:20.100Z,0.40
2022-11-16T22:54:30.256Z,0.50
2022-11-16T22:56:40.471Z,0.60
2022-11-16T22:58:49.011Z,0.40
2022-11-16T23:00:57.501Z,0.50
2022-11-16T23:03:06.256Z,0.50
2022-11-16T23:05:14.818Z,0.50
2022-11-16T23:07:23.357Z,0.40
2022-11-16T23:09:32.713Z,0.40
2022-11-16T23:12:00.011Z,0.57
2022-11-16T23:14:27.279Z,0.43
2022-11-16T23:16:35.793Z,0.30
2022-11-16T23:18:44.208Z,0.50
2022-11-16T23:21:10.506Z,0.40
2022-11-16T23:23:37.510Z,0.40
2022-11-16T23:26:03.469Z,0.50
2022-11-16T23:28:15.368Z,0.40
2022-11-16T23:30:24.012Z,0.37
2022-11-16T23:32:32.857Z,0.30
2022-11-16T23:34:41.355Z,0.40
2022-11-16T23:36:50.017Z,0.47
2022-11-16T23:38:58.469Z,0.30
2022-11-16T23:41:20.927Z,0.50
2022-11-16T23:43:48.480Z,0.30
2022-11-16T23:45:56.887Z,0.30
2022-11-16T23:48:05.493Z,0.30
2022-11-16T23:50:13.926Z,0.33
2022-11-16T23:52:22.442Z,0.20
2022-11-16T23:54:30.878Z,0.43
2022-11-16T23:56:39.492Z,0.20
2022-11-16T23:58:49.622Z,0.40
